sensor_id;sensor_type;location;lat;lon;timestamp;temperature;humidity
11152;DHT22;5630;49.342;10.802;2023-05-07T00:02:21;12.60;99.90
11152;DHT22;5630;49.342;10.802;2023-05-07T00:04:46;12.70;99.90
11152;DHT22;5630;49.342;10.802;2023-05-07T00:07:12;12.70;99.90
11152;DHT22;5630;49.342;10.802;2023-05-07T00:09:38;12.70;99.90
11152;DHT22;5630;49.342;10.802;2023-05-07T00:12:03;12.70;99.90
11152;DHT22;5630;49.342;10.802;2023-05-07T00:14:29;12.70;99.90
11152;DHT22;5630;49.342;10.802;2023-05-07T00:16:55;12.80;99.90
11152;DHT22;5630;49.342;10.802;2023-05-07T00:19:21;12.80;99.90
11152;DHT22;5630;49.342;10.802;2023-05-07T00:21:46;12.80;99.90
11152;DHT22;5630;49.342;10.802;2023-05-07T00:24:12;12.80;99.90
11152;DHT22;5630;49.342;10.802;2023-05-07T00:26:37;12.90;99.90
11152;DHT22;5630;49.342;10.802;2023-05-07T00:29:03;12.90;99.90
11152;DHT22;5630;49.342;10.802;2023-05-07T00:31:28;12.90;99.90
11152;DHT22;5630;49.342;10.802;2023-05-07T00:33:54;12.90;99.90
11152;DHT22;5630;49.342;10.802;2023-05-07T00:36:19;12.90;99.90
11152;DHT22;5630;49.342;10.802;2023-05-07T00:38:45;12.90;99.90
11152;DHT22;5630;49.342;10.802;2023-05-07T00:41:10;12.90;99.90
11152;DHT22;5630;49.342;10.802;2023-05-07T00:43:36;13.00;99.90
11152;DHT22;5630;49.342;10.802;2023-05-07T00:46:01;13.00;99.90
11152;DHT22;5630;49.342;10.802;2023-05-07T00:48:27;13.00;99.90
11152;DHT22;5630;49.342;10.802;2023-05-07T00:50:53;13.00;99.90
11152;DHT22;5630;49.342;10.802;2023-05-07T00:53:19;13.00;99.90
11152;DHT22;5630;49.342;10.802;2023-05-07T00:55:45;13.00;99.90
11152;DHT22;5630;49.342;10.802;2023-05-07T00:58:11;12.90;99.90
11152;DHT22;5630;49.342;10.802;2023-05-07T01:00:36;12.90;99.90
11152;DHT22;5630;49.342;10.802;2023-05-07T01:03:02;12.90;99.90
11152;DHT22;5630;49.342;10.802;2023-05-07T01:05:29;12.90;99.90
11152;DHT22;5630;49.342;10.802;2023-05-07T01:07:56;12.90;99.90
11152;DHT22;5630;49.342;10.802;2023-05-07T01:10:24;12.90;99.90
11152;DHT22;5630;49.342;10.802;2023-05-07T01:12:50;12.90;99.90
11152;DHT22;5630;49.342;10.802;2023-05-07T01:15:16;12.90;99.90
11152;DHT22;5630;49.342;10.802;2023-05-07T01:17:43;12.90;99.90
11152;DHT22;5630;49.342;10.802;2023-05-07T01:20:09;12.90;99.90
11152;DHT22;5630;49.342;10.802;2023-05-07T01:22:38;12.90;99.90
11152;DHT22;5630;49.342;10.802;2023-05-07T01:25:05;12.90;99.90
11152;DHT22;5630;49.342;10.802;2023-05-07T01:27:31;12.90;99.90
11152;DHT22;5630;49.342;10.802;2023-05-07T01:29:58;12.90;99.90
11152;DHT22;5630;49.342;10.802;2023-05-07T01:32:32;12.90;99.90
11152;DHT22;5630;49.342;10.802;2023-05-07T01:35:00;12.90;99.90
11152;DHT22;5630;49.342;10.802;2023-05-07T01:37:26;12.80;99.90
11152;DHT22;5630;49.342;10.802;2023-05-07T01:39:52;12.80;99.90
11152;DHT22;5630;49.342;10.802;2023-05-07T01:42:19;12.80;99.90
11152;DHT22;5630;49.342;10.802;2023-05-07T01:44:45;12.80;99.90
11152;DHT22;5630;49.342;10.802;2023-05-07T01:47:12;12.70;99.90
11152;DHT22;5630;49.342;10.802;2023-05-07T01:49:38;12.80;99.90
11152;DHT22;5630;49.342;10.802;2023-05-07T01:52:04;12.70;99.90
11152;DHT22;5630;49.342;10.802;2023-05-07T01:54:29;12.70;99.90
11152;DHT22;5630;49.342;10.802;2023-05-07T01:56:59;12.60;99.90
11152;DHT22;5630;49.342;10.802;2023-05-07T01:59:25;12.60;99.90
11152;DHT22;5630;49.342;10.802;2023-05-07T02:01:51;12.60;99.90
11152;DHT22;5630;49.342;10.802;2023-05-07T02:04:17;12.60;99.90
11152;DHT22;5630;49.342;10.802;2023-05-07T02:06:42;12.60;99.90
11152;DHT22;5630;49.342;10.802;2023-05-07T02:09:08;12.50;99.90
11152;DHT22;5630;49.342;10.802;2023-05-07T02:11:36;12.50;99.90
11152;DHT22;5630;49.342;10.802;2023-05-07T02:14:02;12.50;99.90
11152;DHT22;5630;49.342;10.802;2023-05-07T02:16:27;12.50;99.90
11152;DHT22;5630;49.342;10.802;2023-05-07T02:18:53;12.50;99.90
11152;DHT22;5630;49.342;10.802;2023-05-07T02:21:18;12.40;99.90
11152;DHT22;5630;49.342;10.802;2023-05-07T02:23:44;12.40;99.90
11152;DHT22;5630;49.342;10.802;2023-05-07T02:26:10;12.40;99.90
11152;DHT22;5630;49.342;10.802;2023-05-07T02:28:36;12.40;99.90
11152;DHT22;5630;49.342;10.802;2023-05-07T02:31:05;12.40;99.90
11152;DHT22;5630;49.342;10.802;2023-05-07T02:33:31;12.50;99.90
11152;DHT22;5630;49.342;10.802;2023-05-07T02:35:56;12.40;99.90
11152;DHT22;5630;49.342;10.802;2023-05-07T02:38:22;12.40;99.90
11152;DHT22;5630;49.342;10.802;2023-05-07T02:40:48;12.40;99.90
11152;DHT22;5630;49.342;10.802;2023-05-07T02:43:14;12.40;99.90
11152;DHT22;5630;49.342;10.802;2023-05-07T02:45:39;12.30;99.90
11152;DHT22;5630;49.342;10.802;2023-05-07T02:48:05;12.40;99.90
11152;DHT22;5630;49.342;10.802;2023-05-07T02:50:31;12.40;99.90
11152;DHT22;5630;49.342;10.802;2023-05-07T02:52:58;12.30;99.90
11152;DHT22;5630;49.342;10.802;2023-05-07T02:55:23;12.30;99.90
11152;DHT22;5630;49.342;10.802;2023-05-07T02:57:49;12.30;99.90
11152;DHT22;5630;49.342;10.802;2023-05-07T03:00:17;12.30;99.90
11152;DHT22;5630;49.342;10.802;2023-05-07T03:02:43;12.30;99.90
11152;DHT22;5630;49.342;10.802;2023-05-07T03:05:09;12.30;99.90
11152;DHT22;5630;49.342;10.802;2023-05-07T03:07:35;12.30;99.90
11152;DHT22;5630;49.342;10.802;2023-05-07T03:10:01;12.30;99.90
11152;DHT22;5630;49.342;10.802;2023-05-07T03:12:27;12.30;99.90
11152;DHT22;5630;49.342;10.802;2023-05-07T03:14:52;12.20;99.90
11152;DHT22;5630;49.342;10.802;2023-05-07T03:17:18;12.30;99.90
11152;DHT22;5630;49.342;10.802;2023-05-07T03:19:43;12.30;99.90
11152;DHT22;5630;49.342;10.802;2023-05-07T03:22:09;12.30;99.90
11152;DHT22;5630;49.342;10.802;2023-05-07T03:24:35;12.30;99.90
11152;DHT22;5630;49.342;10.802;2023-05-07T03:27:00;12.30;99.90
11152;DHT22;5630;49.342;10.802;2023-05-07T03:29:26;12.30;99.90
11152;DHT22;5630;49.342;10.802;2023-05-07T03:31:52;12.30;99.90
11152;DHT22;5630;49.342;10.802;2023-05-07T03:34:17;12.30;99.90
11152;DHT22;5630;49.342;10.802;2023-05-07T03:36:50;12.30;99.90
11152;DHT22;5630;49.342;10.802;2023-05-07T03:39:15;12.30;99.90
11152;DHT22;5630;49.342;10.802;2023-05-07T03:41:41;12.20;99.90
11152;DHT22;5630;49.342;10.802;2023-05-07T03:44:06;12.20;99.90
11152;DHT22;5630;49.342;10.802;2023-05-07T03:46:33;12.20;99.90
11152;DHT22;5630;49.342;10.802;2023-05-07T03:48:58;12.20;99.90
11152;DHT22;5630;49.342;10.802;2023-05-07T03:51:24;12.20;99.90
11152;DHT22;5630;49.342;10.802;2023-05-07T03:53:51;12.10;99.90
11152;DHT22;5630;49.342;10.802;2023-05-07T03:56:18;12.20;99.90
11152;DHT22;5630;49.342;10.802;2023-05-07T03:58:44;12.20;99.90
11152;DHT22;5630;49.342;10.802;2023-05-07T04:01:10;12.20;99.90
11152;DHT22;5630;49.342;10.802;2023-05-07T04:03:36;12.20;99.90
11152;DHT22;5630;49.342;10.802;2023-05-07T04:06:01;12.20;99.90
11152;DHT22;5630;49.342;10.802;2023-05-07T04:08:27;12.20;99.90
11152;DHT22;5630;49.342;10.802;2023-05-07T04:10:56;12.20;99.90
11152;DHT22;5630;49.342;10.802;2023-05-07T04:13:22;12.20;99.90
11152;DHT22;5630;49.342;10.802;2023-05-07T04:15:47;12.20;99.90
11152;DHT22;5630;49.342;10.802;2023-05-07T04:18:14;12.20;99.90
11152;DHT22;5630;49.342;10.802;2023-05-07T04:20:41;12.20;99.90
11152;DHT22;5630;49.342;10.802;2023-05-07T04:23:06;12.20;99.90
11152;DHT22;5630;49.342;10.802;2023-05-07T04:25:32;12.20;99.90
11152;DHT22;5630;49.342;10.802;2023-05-07T04:27:58;12.20;99.90
11152;DHT22;5630;49.342;10.802;2023-05-07T04:30:24;12.20;99.90
11152;DHT22;5630;49.342;10.802;2023-05-07T04:32:49;12.30;99.90
11152;DHT22;5630;49.342;10.802;2023-05-07T04:35:15;12.30;99.90
11152;DHT22;5630;49.342;10.802;2023-05-07T04:37:41;12.20;99.90
11152;DHT22;5630;49.342;10.802;2023-05-07T04:40:07;12.30;99.90
11152;DHT22;5630;49.342;10.802;2023-05-07T04:42:32;12.30;99.90
11152;DHT22;5630;49.342;10.802;2023-05-07T04:44:58;12.30;99.90
11152;DHT22;5630;49.342;10.802;2023-05-07T04:47:24;12.40;99.90
11152;DHT22;5630;49.342;10.802;2023-05-07T04:49:49;12.40;99.90
11152;DHT22;5630;49.342;10.802;2023-05-07T04:52:15;12.40;99.90
11152;DHT22;5630;49.342;10.802;2023-05-07T04:54:41;12.40;99.90
11152;DHT22;5630;49.342;10.802;2023-05-07T04:57:06;12.40;99.90
11152;DHT22;5630;49.342;10.802;2023-05-07T04:59:32;12.50;99.90
11152;DHT22;5630;49.342;10.802;2023-05-07T05:01:58;12.50;99.90
11152;DHT22;5630;49.342;10.802;2023-05-07T05:04:24;12.50;99.90
11152;DHT22;5630;49.342;10.802;2023-05-07T05:06:49;12.60;99.90
11152;DHT22;5630;49.342;10.802;2023-05-07T05:09:15;12.60;99.90
11152;DHT22;5630;49.342;10.802;2023-05-07T05:11:41;12.70;99.90
11152;DHT22;5630;49.342;10.802;2023-05-07T05:14:07;12.70;99.90
11152;DHT22;5630;49.342;10.802;2023-05-07T05:16:32;12.70;99.90
11152;DHT22;5630;49.342;10.802;2023-05-07T05:18:58;12.70;99.90
11152;DHT22;5630;49.342;10.802;2023-05-07T05:21:23;12.80;99.90
11152;DHT22;5630;49.342;10.802;2023-05-07T05:23:49;12.80;99.90
11152;DHT22;5630;49.342;10.802;2023-05-07T05:26:15;12.90;99.90
11152;DHT22;5630;49.342;10.802;2023-05-07T05:28:40;12.90;99.90
11152;DHT22;5630;49.342;10.802;2023-05-07T05:31:06;12.90;99.90
11152;DHT22;5630;49.342;10.802;2023-05-07T05:33:31;12.90;99.90
11152;DHT22;5630;49.342;10.802;2023-05-07T05:35:57;13.00;99.90
11152;DHT22;5630;49.342;10.802;2023-05-07T05:38:22;13.00;99.90
11152;DHT22;5630;49.342;10.802;2023-05-07T05:40:48;13.00;99.90
11152;DHT22;5630;49.342;10.802;2023-05-07T05:43:14;13.00;99.90
11152;DHT22;5630;49.342;10.802;2023-05-07T05:45:40;13.10;99.90
11152;DHT22;5630;49.342;10.802;2023-05-07T05:48:05;13.10;99.90
11152;DHT22;5630;49.342;10.802;2023-05-07T05:50:31;13.10;99.90
11152;DHT22;5630;49.342;10.802;2023-05-07T05:52:57;13.20;99.90
11152;DHT22;5630;49.342;10.802;2023-05-07T05:55:23;13.20;99.90
11152;DHT22;5630;49.342;10.802;2023-05-07T05:57:49;13.20;99.90
11152;DHT22;5630;49.342;10.802;2023-05-07T06:00:15;13.30;99.90
11152;DHT22;5630;49.342;10.802;2023-05-07T06:02:41;13.40;99.90
11152;DHT22;5630;49.342;10.802;2023-05-07T06:05:08;13.40;99.90
11152;DHT22;5630;49.342;10.802;2023-05-07T06:07:33;13.50;99.90
11152;DHT22;5630;49.342;10.802;2023-05-07T06:10:00;13.50;99.90
11152;DHT22;5630;49.342;10.802;2023-05-07T06:12:26;13.60;99.90
11152;DHT22;5630;49.342;10.802;2023-05-07T06:14:51;13.70;99.90
11152;DHT22;5630;49.342;10.802;2023-05-07T06:17:17;13.70;99.90
11152;DHT22;5630;49.342;10.802;2023-05-07T06:19:43;13.80;99.90
11152;DHT22;5630;49.342;10.802;2023-05-07T06:22:08;13.90;99.90
11152;DHT22;5630;49.342;10.802;2023-05-07T06:24:34;14.00;99.90
11152;DHT22;5630;49.342;10.802;2023-05-07T06:26:59;14.10;99.90
11152;DHT22;5630;49.342;10.802;2023-05-07T06:29:25;14.20;99.90
11152;DHT22;5630;49.342;10.802;2023-05-07T06:31:55;14.20;99.90
11152;DHT22;5630;49.342;10.802;2023-05-07T06:34:21;14.40;99.90
11152;DHT22;5630;49.342;10.802;2023-05-07T06:36:46;14.40;99.90
11152;DHT22;5630;49.342;10.802;2023-05-07T06:39:12;14.50;99.90
11152;DHT22;5630;49.342;10.802;2023-05-07T06:41:37;14.60;99.90
11152;DHT22;5630;49.342;10.802;2023-05-07T06:44:04;14.60;99.90
11152;DHT22;5630;49.342;10.802;2023-05-07T06:46:30;14.60;99.90
11152;DHT22;5630;49.342;10.802;2023-05-07T06:48:55;14.60;99.90
11152;DHT22;5630;49.342;10.802;2023-05-07T06:51:22;14.60;99.90
11152;DHT22;5630;49.342;10.802;2023-05-07T06:53:48;14.70;99.90
11152;DHT22;5630;49.342;10.802;2023-05-07T06:56:13;14.80;99.90
11152;DHT22;5630;49.342;10.802;2023-05-07T06:58:39;14.80;99.90
11152;DHT22;5630;49.342;10.802;2023-05-07T07:01:04;14.90;99.90
11152;DHT22;5630;49.342;10.802;2023-05-07T07:03:30;15.00;99.90
11152;DHT22;5630;49.342;10.802;2023-05-07T07:05:55;15.00;99.90
11152;DHT22;5630;49.342;10.802;2023-05-07T07:08:22;15.00;99.90
11152;DHT22;5630;49.342;10.802;2023-05-07T07:10:48;15.00;99.90
11152;DHT22;5630;49.342;10.802;2023-05-07T07:13:13;15.10;99.90
11152;DHT22;5630;49.342;10.802;2023-05-07T07:15:39;15.10;99.90
11152;DHT22;5630;49.342;10.802;2023-05-07T07:18:06;15.20;99.90
11152;DHT22;5630;49.342;10.802;2023-05-07T07:20:31;15.20;99.90
11152;DHT22;5630;49.342;10.802;2023-05-07T07:22:57;15.20;99.90
11152;DHT22;5630;49.342;10.802;2023-05-07T07:25:23;15.20;99.90
11152;DHT22;5630;49.342;10.802;2023-05-07T07:27:49;15.20;99.90
11152;DHT22;5630;49.342;10.802;2023-05-07T07:30:14;15.30;99.90
11152;DHT22;5630;49.342;10.802;2023-05-07T07:32:40;15.20;99.90
11152;DHT22;5630;49.342;10.802;2023-05-07T07:35:06;15.20;99.90
11152;DHT22;5630;49.342;10.802;2023-05-07T07:37:32;15.20;99.90
11152;DHT22;5630;49.342;10.802;2023-05-07T07:39:57;15.20;99.90
11152;DHT22;5630;49.342;10.802;2023-05-07T07:42:23;15.30;99.90
11152;DHT22;5630;49.342;10.802;2023-05-07T07:44:48;15.40;99.90
11152;DHT22;5630;49.342;10.802;2023-05-07T07:47:14;15.40;99.90
11152;DHT22;5630;49.342;10.802;2023-05-07T07:49:39;15.50;99.90
11152;DHT22;5630;49.342;10.802;2023-05-07T07:52:05;15.60;99.90
11152;DHT22;5630;49.342;10.802;2023-05-07T07:54:31;15.70;99.90
11152;DHT22;5630;49.342;10.802;2023-05-07T07:56:56;15.80;99.90
11152;DHT22;5630;49.342;10.802;2023-05-07T07:59:22;16.00;99.90
11152;DHT22;5630;49.342;10.802;2023-05-07T08:01:48;16.00;99.90
11152;DHT22;5630;49.342;10.802;2023-05-07T08:04:15;16.20;99.90
11152;DHT22;5630;49.342;10.802;2023-05-07T08:06:41;16.30;99.90
11152;DHT22;5630;49.342;10.802;2023-05-07T08:09:07;16.50;99.90
11152;DHT22;5630;49.342;10.802;2023-05-07T08:11:33;16.70;99.90
11152;DHT22;5630;49.342;10.802;2023-05-07T08:13:59;16.80;99.90
11152;DHT22;5630;49.342;10.802;2023-05-07T08:16:24;16.90;99.90
11152;DHT22;5630;49.342;10.802;2023-05-07T08:18:50;17.00;99.90
11152;DHT22;5630;49.342;10.802;2023-05-07T08:21:16;17.00;99.90
11152;DHT22;5630;49.342;10.802;2023-05-07T08:23:41;17.00;99.90
11152;DHT22;5630;49.342;10.802;2023-05-07T08:26:08;17.00;99.90
11152;DHT22;5630;49.342;10.802;2023-05-07T08:28:33;17.00;99.90
11152;DHT22;5630;49.342;10.802;2023-05-07T08:30:59;17.00;99.90
11152;DHT22;5630;49.342;10.802;2023-05-07T08:33:26;17.30;99.90
11152;DHT22;5630;49.342;10.802;2023-05-07T08:35:52;17.60;99.90
11152;DHT22;5630;49.342;10.802;2023-05-07T08:38:17;17.80;99.90
11152;DHT22;5630;49.342;10.802;2023-05-07T08:40:43;18.00;99.90
11152;DHT22;5630;49.342;10.802;2023-05-07T08:43:08;18.40;99.90
11152;DHT22;5630;49.342;10.802;2023-05-07T08:45:39;18.80;99.90
11152;DHT22;5630;49.342;10.802;2023-05-07T08:48:09;19.10;99.90
11152;DHT22;5630;49.342;10.802;2023-05-07T08:50:39;19.30;99.90
11152;DHT22;5630;49.342;10.802;2023-05-07T08:53:05;19.30;99.90
11152;DHT22;5630;49.342;10.802;2023-05-07T08:55:31;19.30;99.90
11152;DHT22;5630;49.342;10.802;2023-05-07T08:57:57;19.60;99.90
11152;DHT22;5630;49.342;10.802;2023-05-07T09:02:48;20.10;99.90
11152;DHT22;5630;49.342;10.802;2023-05-07T09:05:14;20.40;99.90
11152;DHT22;5630;49.342;10.802;2023-05-07T09:07:41;20.50;99.90
11152;DHT22;5630;49.342;10.802;2023-05-07T09:10:07;20.40;99.90
11152;DHT22;5630;49.342;10.802;2023-05-07T09:12:32;20.40;99.90
11152;DHT22;5630;49.342;10.802;2023-05-07T09:17:28;20.90;99.90
11152;DHT22;5630;49.342;10.802;2023-05-07T09:19:53;21.30;99.90
11152;DHT22;5630;49.342;10.802;2023-05-07T09:22:19;21.40;99.90
11152;DHT22;5630;49.342;10.802;2023-05-07T09:24:49;21.30;99.90
11152;DHT22;5630;49.342;10.802;2023-05-07T09:27:15;21.30;99.90
11152;DHT22;5630;49.342;10.802;2023-05-07T09:29:41;21.30;99.90
11152;DHT22;5630;49.342;10.802;2023-05-07T09:32:07;21.50;99.90
11152;DHT22;5630;49.342;10.802;2023-05-07T09:34:33;21.60;99.90
11152;DHT22;5630;49.342;10.802;2023-05-07T09:37:04;21.60;99.90
11152;DHT22;5630;49.342;10.802;2023-05-07T09:39:47;21.50;99.90
11152;DHT22;5630;49.342;10.802;2023-05-07T09:42:13;21.60;99.90
11152;DHT22;5630;49.342;10.802;2023-05-07T09:44:43;21.50;99.90
11152;DHT22;5630;49.342;10.802;2023-05-07T09:47:10;21.40;99.90
11152;DHT22;5630;49.342;10.802;2023-05-07T09:49:38;21.50;99.90
11152;DHT22;5630;49.342;10.802;2023-05-07T09:52:06;21.70;99.90
11152;DHT22;5630;49.342;10.802;2023-05-07T09:54:35;21.90;99.90
11152;DHT22;5630;49.342;10.802;2023-05-07T09:59:31;22.10;99.90
11152;DHT22;5630;49.342;10.802;2023-05-07T10:01:58;22.40;99.90
11152;DHT22;5630;49.342;10.802;2023-05-07T10:04:25;22.60;99.90
11152;DHT22;5630;49.342;10.802;2023-05-07T10:06:52;22.70;99.90
11152;DHT22;5630;49.342;10.802;2023-05-07T10:09:17;22.70;99.90
11152;DHT22;5630;49.342;10.802;2023-05-07T10:11:43;23.00;99.90
11152;DHT22;5630;49.342;10.802;2023-05-07T10:16:36;23.40;99.90
11152;DHT22;5630;49.342;10.802;2023-05-07T10:19:03;23.70;99.90
11152;DHT22;5630;49.342;10.802;2023-05-07T10:21:30;24.00;99.90
11152;DHT22;5630;49.342;10.802;2023-05-07T10:24:04;24.20;99.90
11152;DHT22;5630;49.342;10.802;2023-05-07T10:26:36;24.40;99.90
11152;DHT22;5630;49.342;10.802;2023-05-07T10:29:18;24.60;99.90
11152;DHT22;5630;49.342;10.802;2023-05-07T10:34:45;24.40;99.90
11152;DHT22;5630;49.342;10.802;2023-05-07T10:37:12;24.30;99.90
11152;DHT22;5630;49.342;10.802;2023-05-07T10:39:38;24.30;99.90
11152;DHT22;5630;49.342;10.802;2023-05-07T10:42:11;24.30;99.90
11152;DHT22;5630;49.342;10.802;2023-05-07T10:44:37;24.50;99.90
11152;DHT22;5630;49.342;10.802;2023-05-07T10:47:12;24.60;99.90
11152;DHT22;5630;49.342;10.802;2023-05-07T10:52:15;24.80;99.90
11152;DHT22;5630;49.342;10.802;2023-05-07T10:54:44;24.90;99.90
11152;DHT22;5630;49.342;10.802;2023-05-07T10:57:33;25.00;99.90
11152;DHT22;5630;49.342;10.802;2023-05-07T11:00:01;25.10;99.90
11152;DHT22;5630;49.342;10.802;2023-05-07T11:05:25;25.00;99.90
11152;DHT22;5630;49.342;10.802;2023-05-07T11:07:55;25.10;99.90
11152;DHT22;5630;49.342;10.802;2023-05-07T11:10:21;25.20;99.90
11152;DHT22;5630;49.342;10.802;2023-05-07T11:12:51;25.50;99.90
11152;DHT22;5630;49.342;10.802;2023-05-07T11:26:07;25.90;99.90
11152;DHT22;5630;49.342;10.802;2023-05-07T11:28:40;25.90;99.90
11152;DHT22;5630;49.342;10.802;2023-05-07T11:33:33;26.20;99.90
11152;DHT22;5630;49.342;10.802;2023-05-07T11:36:00;26.20;99.90
11152;DHT22;5630;49.342;10.802;2023-05-07T11:38:28;26.00;99.90
11152;DHT22;5630;49.342;10.802;2023-05-07T11:40:56;26.00;99.90
11152;DHT22;5630;49.342;10.802;2023-05-07T11:43:22;26.10;99.90
11152;DHT22;5630;49.342;10.802;2023-05-07T11:45:48;26.00;99.90
11152;DHT22;5630;49.342;10.802;2023-05-07T11:48:16;26.20;99.90
11152;DHT22;5630;49.342;10.802;2023-05-07T11:51:03;26.40;99.90
11152;DHT22;5630;49.342;10.802;2023-05-07T11:53:36;26.50;99.90
11152;DHT22;5630;49.342;10.802;2023-05-07T11:56:10;26.50;99.90
11152;DHT22;5630;49.342;10.802;2023-05-07T11:58:36;26.50;99.90
11152;DHT22;5630;49.342;10.802;2023-05-07T12:01:02;26.60;99.90
11152;DHT22;5630;49.342;10.802;2023-05-07T12:03:28;26.60;99.90
11152;DHT22;5630;49.342;10.802;2023-05-07T12:05:53;26.30;99.90
11152;DHT22;5630;49.342;10.802;2023-05-07T12:08:21;25.90;99.90
11152;DHT22;5630;49.342;10.802;2023-05-07T12:10:48;25.70;99.90
11152;DHT22;5630;49.342;10.802;2023-05-07T12:13:16;25.60;99.90
11152;DHT22;5630;49.342;10.802;2023-05-07T12:15:42;25.50;99.90
11152;DHT22;5630;49.342;10.802;2023-05-07T12:18:08;25.50;99.90
11152;DHT22;5630;49.342;10.802;2023-05-07T12:20:35;25.60;99.90
11152;DHT22;5630;49.342;10.802;2023-05-07T12:23:01;25.70;99.90
11152;DHT22;5630;49.342;10.802;2023-05-07T12:25:36;25.60;99.90
11152;DHT22;5630;49.342;10.802;2023-05-07T12:28:03;25.90;99.90
11152;DHT22;5630;49.342;10.802;2023-05-07T12:30:37;26.10;99.90
11152;DHT22;5630;49.342;10.802;2023-05-07T12:33:03;25.90;99.90
11152;DHT22;5630;49.342;10.802;2023-05-07T12:35:29;26.00;99.90
11152;DHT22;5630;49.342;10.802;2023-05-07T12:37:59;26.20;99.90
11152;DHT22;5630;49.342;10.802;2023-05-07T12:40:39;26.10;99.90
11152;DHT22;5630;49.342;10.802;2023-05-07T12:43:04;26.10;99.90
11152;DHT22;5630;49.342;10.802;2023-05-07T12:45:30;26.20;99.90
11152;DHT22;5630;49.342;10.802;2023-05-07T12:47:56;26.10;99.60
11152;DHT22;5630;49.342;10.802;2023-05-07T12:50:22;26.20;99.90
11152;DHT22;5630;49.342;10.802;2023-05-07T12:52:48;26.20;99.90
11152;DHT22;5630;49.342;10.802;2023-05-07T12:55:15;26.30;99.90
11152;DHT22;5630;49.342;10.802;2023-05-07T12:57:43;26.30;99.90
11152;DHT22;5630;49.342;10.802;2023-05-07T13:00:11;26.10;99.90
11152;DHT22;5630;49.342;10.802;2023-05-07T13:02:41;25.80;99.90
11152;DHT22;5630;49.342;10.802;2023-05-07T13:05:09;25.50;99.90
11152;DHT22;5630;49.342;10.802;2023-05-07T13:07:35;25.20;99.90
11152;DHT22;5630;49.342;10.802;2023-05-07T13:10:02;25.20;99.90
11152;DHT22;5630;49.342;10.802;2023-05-07T13:12:28;25.40;99.90
11152;DHT22;5630;49.342;10.802;2023-05-07T13:14:53;25.50;99.90
11152;DHT22;5630;49.342;10.802;2023-05-07T13:17:19;25.60;99.90
11152;DHT22;5630;49.342;10.802;2023-05-07T13:19:44;25.60;99.90
11152;DHT22;5630;49.342;10.802;2023-05-07T13:22:10;25.60;99.90
11152;DHT22;5630;49.342;10.802;2023-05-07T13:24:36;25.50;99.90
11152;DHT22;5630;49.342;10.802;2023-05-07T13:27:01;25.70;99.90
11152;DHT22;5630;49.342;10.802;2023-05-07T13:29:28;25.60;99.60
11152;DHT22;5630;49.342;10.802;2023-05-07T13:31:56;25.50;99.40
11152;DHT22;5630;49.342;10.802;2023-05-07T13:34:22;25.40;99.60
11152;DHT22;5630;49.342;10.802;2023-05-07T13:36:47;25.40;99.90
11152;DHT22;5630;49.342;10.802;2023-05-07T13:39:13;25.40;99.90
11152;DHT22;5630;49.342;10.802;2023-05-07T13:41:38;25.40;99.90
11152;DHT22;5630;49.342;10.802;2023-05-07T13:44:04;25.60;99.90
11152;DHT22;5630;49.342;10.802;2023-05-07T13:46:30;25.70;99.90
11152;DHT22;5630;49.342;10.802;2023-05-07T13:48:56;25.80;99.90
11152;DHT22;5630;49.342;10.802;2023-05-07T13:51:22;25.80;99.90
11152;DHT22;5630;49.342;10.802;2023-05-07T14:01:06;25.60;99.90
11152;DHT22;5630;49.342;10.802;2023-05-07T14:40:08;24.70;99.90
11152;DHT22;5630;49.342;10.802;2023-05-07T14:42:34;23.30;99.90
11152;DHT22;5630;49.342;10.802;2023-05-07T14:44:59;23.20;99.90
11152;DHT22;5630;49.342;10.802;2023-05-07T14:47:25;23.10;99.90
11152;DHT22;5630;49.342;10.802;2023-05-07T14:49:50;23.10;99.90
11152;DHT22;5630;49.342;10.802;2023-05-07T14:52:16;23.10;99.90
11152;DHT22;5630;49.342;10.802;2023-05-07T14:54:42;23.10;99.90
11152;DHT22;5630;49.342;10.802;2023-05-07T14:57:08;23.30;99.90
11152;DHT22;5630;49.342;10.802;2023-05-07T14:59:35;23.30;99.90
11152;DHT22;5630;49.342;10.802;2023-05-07T15:02:01;23.30;99.90
11152;DHT22;5630;49.342;10.802;2023-05-07T15:04:26;23.30;99.90
11152;DHT22;5630;49.342;10.802;2023-05-07T15:06:52;23.30;99.90
11152;DHT22;5630;49.342;10.802;2023-05-07T15:09:19;23.30;99.90
11152;DHT22;5630;49.342;10.802;2023-05-07T15:11:44;23.30;99.90
11152;DHT22;5630;49.342;10.802;2023-05-07T15:14:10;23.20;99.90
11152;DHT22;5630;49.342;10.802;2023-05-07T15:16:35;23.20;99.90
11152;DHT22;5630;49.342;10.802;2023-05-07T15:19:01;23.20;99.90
11152;DHT22;5630;49.342;10.802;2023-05-07T15:21:27;23.20;99.90
11152;DHT22;5630;49.342;10.802;2023-05-07T15:23:52;23.20;99.90
11152;DHT22;5630;49.342;10.802;2023-05-07T15:26:18;23.20;99.90
11152;DHT22;5630;49.342;10.802;2023-05-07T15:28:43;23.20;99.90
11152;DHT22;5630;49.342;10.802;2023-05-07T15:31:09;23.10;99.90
11152;DHT22;5630;49.342;10.802;2023-05-07T15:33:35;23.10;99.90
11152;DHT22;5630;49.342;10.802;2023-05-07T15:36:00;23.10;99.90
11152;DHT22;5630;49.342;10.802;2023-05-07T15:38:27;23.00;99.90
11152;DHT22;5630;49.342;10.802;2023-05-07T15:40:52;23.00;99.90
11152;DHT22;5630;49.342;10.802;2023-05-07T15:43:18;23.00;99.90
11152;DHT22;5630;49.342;10.802;2023-05-07T15:45:43;22.90;99.90
11152;DHT22;5630;49.342;10.802;2023-05-07T15:48:10;22.80;99.90
11152;DHT22;5630;49.342;10.802;2023-05-07T15:50:36;22.80;99.90
11152;DHT22;5630;49.342;10.802;2023-05-07T15:53:03;22.80;99.90
11152;DHT22;5630;49.342;10.802;2023-05-07T15:55:30;22.60;99.90
11152;DHT22;5630;49.342;10.802;2023-05-07T15:57:56;22.50;99.90
11152;DHT22;5630;49.342;10.802;2023-05-07T16:00:25;22.50;99.90
11152;DHT22;5630;49.342;10.802;2023-05-07T16:02:51;22.40;99.90
11152;DHT22;5630;49.342;10.802;2023-05-07T16:05:17;22.30;99.90
11152;DHT22;5630;49.342;10.802;2023-05-07T16:07:42;22.20;99.90
11152;DHT22;5630;49.342;10.802;2023-05-07T16:10:09;22.10;99.90
11152;DHT22;5630;49.342;10.802;2023-05-07T16:12:35;22.00;99.90
11152;DHT22;5630;49.342;10.802;2023-05-07T16:15:01;22.00;99.90
11152;DHT22;5630;49.342;10.802;2023-05-07T16:17:26;21.90;99.90
11152;DHT22;5630;49.342;10.802;2023-05-07T16:19:52;21.90;99.90
11152;DHT22;5630;49.342;10.802;2023-05-07T16:22:18;21.90;99.90
11152;DHT22;5630;49.342;10.802;2023-05-07T16:24:43;21.90;99.90
11152;DHT22;5630;49.342;10.802;2023-05-07T16:27:09;21.80;99.90
11152;DHT22;5630;49.342;10.802;2023-05-07T16:29:35;21.70;99.90
11152;DHT22;5630;49.342;10.802;2023-05-07T16:32:00;21.60;99.90
11152;DHT22;5630;49.342;10.802;2023-05-07T16:34:26;21.60;99.90
11152;DHT22;5630;49.342;10.802;2023-05-07T16:36:51;21.60;99.90
11152;DHT22;5630;49.342;10.802;2023-05-07T16:39:17;21.50;99.90
11152;DHT22;5630;49.342;10.802;2023-05-07T16:41:43;21.40;99.90